createdAt,value
2022-09-18T00:09:34.180Z,18.93
2022-09-18T00:29:34.146Z,19.12
2022-09-18T00:49:34.122Z,19.06
2022-09-18T01:09:34.127Z,19.00
2022-09-18T01:29:34.100Z,18.87
2022-09-18T01:49:34.136Z,19.00
2022-09-18T02:09:34.050Z,19.00
2022-09-18T02:29:34.038Z,18.93
2022-09-18T02:49:34.003Z,19.06
2022-09-18T03:09:33.992Z,19.00
2022-09-18T03:29:34.019Z,19.00
2022-09-18T03:49:33.947Z,18.75
2022-09-18T04:09:33.917Z,18.93
2022-09-18T04:29:33.909Z,19.00
2022-09-18T04:49:33.886Z,19.06
2022-09-18T05:09:33.870Z,18.81
2022-09-18T05:29:33.841Z,18.81
2022-09-18T05:49:33.824Z,18.75
2022-09-18T06:09:33.819Z,18.75
2022-09-18T06:29:33.783Z,18.87
2022-09-18T06:49:33.758Z,18.93
2022-09-18T07:09:33.729Z,18.87
2022-09-18T07:29:33.720Z,18.68
2022-09-18T07:49:33.685Z,18.68
2022-09-18T08:09:33.676Z,18.75
2022-09-18T08:29:33.662Z,18.81
2022-09-18T08:49:33.666Z,18.81
2022-09-18T09:09:33.604Z,18.68
2022-09-18T09:29:33.579Z,18.81
2022-09-18T09:49:33.561Z,18.68
2022-09-18T10:09:33.545Z,18.81
2022-09-18T10:29:33.521Z,18.93
2022-09-18T10:49:33.489Z,18.68
2022-09-18T11:09:33.469Z,18.68
2022-09-18T11:29:33.472Z,18.81
2022-09-18T11:49:33.427Z,18.75
2022-09-18T12:09:32.056Z,18.56
2022-09-18T12:29:32.013Z,18.81
2022-09-18T12:49:32.642Z,18.75
2022-09-18T13:09:32.617Z,18.68
2022-09-18T13:29:33.323Z,18.56
2022-09-18T13:49:33.300Z,18.56
2022-09-18T14:09:33.219Z,18.68
2022-09-18T14:29:33.204Z,18.68
2022-09-18T14:49:33.188Z,18.62
2022-09-18T15:09:33.178Z,18.68
2022-09-18T15:29:33.157Z,18.62
2022-09-18T15:49:33.151Z,18.50
2022-09-18T16:09:33.116Z,18.50
2022-09-18T16:29:33.086Z,18.50
2022-09-18T16:49:33.084Z,18.56
2022-09-18T17:09:33.060Z,18.50
2022-09-18T17:29:33.056Z,18.56
2022-09-18T17:49:33.029Z,18.43
2022-09-18T18:09:32.983Z,18.68
2022-09-18T18:29:32.958Z,18.43
2022-09-18T18:49:32.944Z,18.43
2022-09-18T19:09:32.905Z,18.37
2022-09-18T19:29:32.903Z,18.50
2022-09-18T19:49:32.863Z,18.31
2022-09-18T20:09:32.829Z,18.50
2022-09-18T20:29:32.832Z,18.25
2022-09-18T20:49:32.787Z,18.50
2022-09-18T21:09:32.818Z,18.37
2022-09-18T21:29:32.756Z,18.37
2022-09-18T21:49:32.727Z,18.62
2022-09-18T22:09:32.708Z,18.31
2022-09-18T22:29:32.691Z,18.31
2022-09-18T22:49:32.666Z,18.25
2022-09-18T23:09:32.694Z,18.56
2022-09-18T23:29:32.622Z,18.43
2022-09-18T23:49:32.598Z,18.37
